createdAt,value
2023-03-02T00:02:18.164Z,80.54
2023-03-02T00:04:50.682Z,80.29
2023-03-02T00:07:22.958Z,80.28
2023-03-02T00:09:49.768Z,80.08
2023-03-02T00:12:16.397Z,79.97
2023-03-02T00:14:43.439Z,80.23
2023-03-02T00:17:10.749Z,80.29
2023-03-02T00:19:37.719Z,80.06
2023-03-02T00:22:04.736Z,79.79
2023-03-02T00:24:31.433Z,79.62
2023-03-02T00:26:58.154Z,79.53
2023-03-02T00:29:24.933Z,79.06
2023-03-02T00:31:51.694Z,79.73
2023-03-02T00:34:18.452Z,79.32
2023-03-02T00:36:45.089Z,79.21
2023-03-02T00:39:11.695Z,79.52
2023-03-02T00:41:38.439Z,79.15
2023-03-02T00:44:05.113Z,79.42
2023-03-02T00:46:32.093Z,79.55
2023-03-02T00:48:58.941Z,79.02
2023-03-02T00:51:25.697Z,78.81
2023-03-02T00:53:52.384Z,78.95
2023-03-02T00:56:19.194Z,79.14
2023-03-02T00:58:45.832Z,79.23
2023-03-02T01:01:13.084Z,79.19
2023-03-02T01:03:39.733Z,79.35
2023-03-02T01:06:13.635Z,79.58
2023-03-02T01:08:40.242Z,79.80
2023-03-02T01:11:13.684Z,79.73
2023-03-02T01:13:40.434Z,79.97
2023-03-02T01:16:07.519Z,79.85
2023-03-02T01:18:34.965Z,79.23
2023-03-02T01:21:06.026Z,79.82
2023-03-02T01:23:32.945Z,79.73
2023-03-02T01:25:59.654Z,79.86
2023-03-02T01:28:26.584Z,79.63
2023-03-02T01:30:54.357Z,80.14
2023-03-02T01:33:21.624Z,80.13
2023-03-02T01:35:48.582Z,80.17
2023-03-02T01:38:15.421Z,80.41
2023-03-02T01:40:42.011Z,80.80
2023-03-02T01:43:14.965Z,81.11
2023-03-02T01:45:59.500Z,80.88
2023-03-02T01:48:31.611Z,81.33
2023-03-02T01:50:59.067Z,81.26
2023-03-02T01:53:29.500Z,81.47
2023-03-02T01:55:57.653Z,81.41
2023-03-02T01:58:25.596Z,81.48
2023-03-02T02:00:54.776Z,81.52
2023-03-02T02:03:24.952Z,81.81
2023-03-02T02:06:17.977Z,81.93
2023-03-02T02:08:46.535Z,81.40
2023-03-02T02:11:13.559Z,81.51
2023-03-02T02:13:40.410Z,81.56
2023-03-02T02:16:07.909Z,81.66
2023-03-02T02:18:38.546Z,82.19
2023-03-02T02:21:06.533Z,81.65
2023-03-02T02:23:39.862Z,81.92
2023-03-02T02:26:20.666Z,82.00
2023-03-02T02:29:00.542Z,82.21
2023-03-02T02:31:42.338Z,82.19
2023-03-02T02:34:28.840Z,83.09
2023-03-02T02:37:01.039Z,83.46
2023-03-02T02:39:31.884Z,83.88
2023-03-02T02:42:07.078Z,83.99
2023-03-02T02:44:33.960Z,84.05
2023-03-02T02:47:00.748Z,84.38
2023-03-02T02:49:35.784Z,84.92
2023-03-02T02:52:05.409Z,84.47
2023-03-02T02:54:34.122Z,85.44
2023-03-02T02:57:03.237Z,85.56
2023-03-02T02:59:34.098Z,85.48
2023-03-02T03:02:01.275Z,85.61
2023-03-02T03:04:31.136Z,85.69
2023-03-02T03:06:59.107Z,85.68
2023-03-02T03:09:26.770Z,85.89
2023-03-02T03:11:56.750Z,85.50
2023-03-02T03:14:35.175Z,85.91
2023-03-02T03:17:02.336Z,85.79
2023-03-02T03:19:32.421Z,85.74
2023-03-02T03:22:01.419Z,86.02
2023-03-02T03:24:29.936Z,85.49
2023-03-02T03:26:57.396Z,85.71
2023-03-02T03:29:26.536Z,85.42
2023-03-02T03:31:55.220Z,85.13
2023-03-02T03:34:22.440Z,85.10
2023-03-02T03:36:49.145Z,84.66
2023-03-02T03:39:18.345Z,84.50
2023-03-02T03:41:45.168Z,84.27
2023-03-02T03:44:12.574Z,84.63
2023-03-02T03:46:39.660Z,84.61
2023-03-02T03:49:06.375Z,84.88
2023-03-02T03:51:35.435Z,84.51
2023-03-02T03:54:08.358Z,84.67
2023-03-02T03:56:38.507Z,84.61
2023-03-02T03:59:08.026Z,84.73
2023-03-02T04:01:39.986Z,84.82
2023-03-02T04:04:09.829Z,84.84
2023-03-02T04:06:36.945Z,84.81
2023-03-02T04:09:05.165Z,84.47
2023-03-02T04:11:35.186Z,84.87
2023-03-02T04:14:02.287Z,84.37
2023-03-02T04:16:30.339Z,84.48
2023-03-02T04:18:58.084Z,85.04
2023-03-02T04:21:24.876Z,85.06
2023-03-02T04:23:51.507Z,85.10
2023-03-02T04:26:18.130Z,85.32
2023-03-02T04:28:44.910Z,84.92
2023-03-02T04:31:11.609Z,85.19
2023-03-02T04:33:39.206Z,84.96
2023-03-02T04:36:06.083Z,85.37
2023-03-02T04:38:32.714Z,85.91
2023-03-02T04:40:59.342Z,85.59
2023-03-02T04:43:26.167Z,85.42
2023-03-02T04:45:54.095Z,86.17
2023-03-02T04:48:22.183Z,86.09
2023-03-02T04:50:48.822Z,86.28
2023-03-02T04:53:16.779Z,86.43
2023-03-02T04:55:43.637Z,86.29
2023-03-02T04:58:10.437Z,86.09
2023-03-02T05:00:37.125Z,86.97
2023-03-02T05:03:04.679Z,86.78
2023-03-02T05:05:31.494Z,86.70
2023-03-02T05:07:59.451Z,86.24
2023-03-02T05:10:27.661Z,86.42
2023-03-02T05:12:55.007Z,86.44
2023-03-02T05:15:23.249Z,85.54
2023-03-02T05:17:49.959Z,85.60
2023-03-02T05:20:17.680Z,85.46
2023-03-02T05:22:44.379Z,85.41
2023-03-02T05:25:13.214Z,85.20
2023-03-02T05:27:39.884Z,85.20
2023-03-02T05:30:07.315Z,85.56
2023-03-02T05:32:34.049Z,85.58
2023-03-02T05:35:00.788Z,85.98
2023-03-02T05:37:27.562Z,86.58
2023-03-02T05:39:54.242Z,86.23
2023-03-02T05:42:20.958Z,86.88
2023-03-02T05:44:47.598Z,86.08
2023-03-02T05:47:14.306Z,86.66
2023-03-02T05:49:41.076Z,86.41
2023-03-02T05:52:07.705Z,86.73
2023-03-02T05:54:34.322Z,87.04
2023-03-02T05:57:00.922Z,87.22
2023-03-02T05:59:27.502Z,87.19
2023-03-02T06:01:58.742Z,87.43
2023-03-02T06:04:25.959Z,87.36
2023-03-02T06:06:52.756Z,87.47
2023-03-02T06:09:19.488Z,87.09
2023-03-02T06:11:46.110Z,87.56
2023-03-02T06:14:12.717Z,87.59
2023-03-02T06:16:40.077Z,86.98
2023-03-02T06:19:06.797Z,86.87
2023-03-02T06:21:33.429Z,87.32
2023-03-02T06:24:00.035Z,87.02
2023-03-02T06:26:26.695Z,86.98
2023-03-02T06:28:54.059Z,86.74
2023-03-02T06:31:21.894Z,86.94
2023-03-02T06:33:48.764Z,86.56
2023-03-02T06:36:17.081Z,86.36
2023-03-02T06:38:43.934Z,86.34
2023-03-02T06:41:10.574Z,86.25
2023-03-02T06:43:40.422Z,86.11
2023-03-02T06:46:07.193Z,86.18
2023-03-02T06:48:33.825Z,86.24
2023-03-02T06:51:00.414Z,85.76
2023-03-02T06:53:27.542Z,85.38
2023-03-02T06:55:54.136Z,85.44
2023-03-02T06:58:20.858Z,85.77
2023-03-02T07:00:47.666Z,85.45
2023-03-02T07:03:14.319Z,84.71
2023-03-02T07:05:41.003Z,84.92
2023-03-02T07:08:07.809Z,84.80
2023-03-02T07:10:34.500Z,84.52
2023-03-02T07:13:01.172Z,84.65
2023-03-02T07:15:27.794Z,84.41
2023-03-02T07:17:54.428Z,84.60
2023-03-02T07:20:21.195Z,84.73
2023-03-02T07:22:47.838Z,84.14
2023-03-02T07:25:14.475Z,83.98
2023-03-02T07:27:41.637Z,83.96
2023-03-02T07:30:09.237Z,83.96
2023-03-02T07:32:35.929Z,83.58
2023-03-02T07:35:02.905Z,83.73
2023-03-02T07:37:30.108Z,83.54
2023-03-02T07:39:58.373Z,82.49
2023-03-02T07:42:25.799Z,82.14
2023-03-02T07:44:54.328Z,82.10
2023-03-02T07:47:21.538Z,82.42
2023-03-02T07:49:48.154Z,81.99
2023-03-02T07:52:15.270Z,81.81
2023-03-02T07:54:45.158Z,81.01
2023-03-02T07:57:13.832Z,81.44
2023-03-02T07:59:40.512Z,80.88
2023-03-02T08:02:07.294Z,81.27
2023-03-02T08:04:35.000Z,80.43
2023-03-02T08:07:01.596Z,80.13
2023-03-02T08:09:28.391Z,80.21
2023-03-02T08:11:55.067Z,79.11
2023-03-02T08:14:21.656Z,79.15
2023-03-02T08:16:48.246Z,79.14
2023-03-02T08:19:14.858Z,78.82
2023-03-02T08:21:41.562Z,78.72
2023-03-02T08:24:08.480Z,78.76
2023-03-02T08:26:35.063Z,78.28
2023-03-02T08:29:01.881Z,78.04
2023-03-02T08:31:28.557Z,77.61
2023-03-02T08:33:55.198Z,77.67
2023-03-02T08:36:22.095Z,77.16
2023-03-02T08:38:49.217Z,77.02
2023-03-02T08:41:19.912Z,77.16
2023-03-02T08:43:47.575Z,76.46
2023-03-02T08:46:17.858Z,76.78
2023-03-02T08:48:44.756Z,76.22
2023-03-02T08:51:15.399Z,76.20
2023-03-02T08:53:44.743Z,75.97
2023-03-02T08:56:16.576Z,75.56
2023-03-02T08:58:43.294Z,75.30
2023-03-02T09:01:18.644Z,74.77
2023-03-02T09:03:45.740Z,73.81
2023-03-02T09:06:12.904Z,74.27
2023-03-02T09:08:40.417Z,74.35
2023-03-02T09:11:07.619Z,73.59
2023-03-02T09:13:35.065Z,72.69
2023-03-02T09:16:02.193Z,73.77
2023-03-02T09:18:30.714Z,73.70
2023-03-02T09:20:58.098Z,72.85
2023-03-02T09:23:26.344Z,72.06
2023-03-02T09:25:53.402Z,72.22
2023-03-02T09:28:21.762Z,71.70
2023-03-02T09:30:51.422Z,71.31
2023-03-02T09:33:19.028Z,70.88
2023-03-02T09:35:47.515Z,70.76
2023-03-02T09:38:17.079Z,70.44
2023-03-02T09:41:06.366Z,70.29
2023-03-02T09:43:53.825Z,70.20
2023-03-02T09:46:30.368Z,69.14
2023-03-02T09:49:13.121Z,68.43
2023-03-02T09:51:40.775Z,68.49
2023-03-02T09:54:19.605Z,67.82
2023-03-02T09:56:50.629Z,66.31
2023-03-02T09:59:24.466Z,66.33
2023-03-02T10:02:04.144Z,66.22
2023-03-02T10:04:41.442Z,65.58
2023-03-02T10:07:17.877Z,65.08
2023-03-02T10:09:44.379Z,65.02
2023-03-02T10:12:35.890Z,64.97
2023-03-02T10:15:12.703Z,64.60
2023-03-02T10:17:40.695Z,63.94
2023-03-02T10:20:34.087Z,64.34
2023-03-02T10:23:23.192Z,64.13
2023-03-02T10:25:58.548Z,63.31
2023-03-02T10:28:32.700Z,63.04
2023-03-02T10:31:18.454Z,62.22
2023-03-02T10:33:45.196Z,62.37
2023-03-02T10:36:27.073Z,61.84
2023-03-02T10:38:55.279Z,61.98
2023-03-02T10:41:35.349Z,61.76
2023-03-02T10:44:11.184Z,62.36
2023-03-02T10:46:41.235Z,61.55
2023-03-02T10:49:24.909Z,61.11
2023-03-02T10:52:15.166Z,60.16
2023-03-02T10:54:42.617Z,60.14
2023-03-02T10:57:39.798Z,60.03
2023-03-02T11:00:24.383Z,59.88
2023-03-02T11:02:57.723Z,59.67
2023-03-02T11:05:32.382Z,59.20
2023-03-02T11:08:02.406Z,59.86
2023-03-02T11:10:40.762Z,58.84
2023-03-02T11:13:17.130Z,58.99
2023-03-02T11:15:48.003Z,58.82
2023-03-02T11:18:15.736Z,59.75
2023-03-02T11:20:45.810Z,58.75
2023-03-02T11:23:33.216Z,59.21
2023-03-02T11:26:12.628Z,58.59
2023-03-02T11:28:50.765Z,58.19
2023-03-02T11:31:35.413Z,58.07
2023-03-02T11:34:18.023Z,58.21
2023-03-02T11:36:56.193Z,57.22
2023-03-02T11:39:29.050Z,57.57
2023-03-02T11:41:55.673Z,58.05
2023-03-02T11:44:24.770Z,58.30
2023-03-02T11:47:00.998Z,57.89
2023-03-02T11:49:38.058Z,57.48
2023-03-02T11:52:04.888Z,57.92
2023-03-02T11:54:41.060Z,56.99
2023-03-02T11:57:34.526Z,56.12
2023-03-02T12:00:03.340Z,56.62
2023-03-02T12:02:29.956Z,56.72
2023-03-02T12:05:07.605Z,56.34
2023-03-02T12:07:34.394Z,56.02
2023-03-02T12:10:05.038Z,54.91
2023-03-02T12:12:33.831Z,55.09
2023-03-02T12:15:01.157Z,54.93
2023-03-02T12:17:27.818Z,54.41
2023-03-02T12:20:09.087Z,54.98
2023-03-02T12:22:37.544Z,55.14
2023-03-02T12:25:21.848Z,54.39
2023-03-02T12:27:52.002Z,53.63
2023-03-02T12:30:23.621Z,54.78
2023-03-02T12:33:18.392Z,53.99
2023-03-02T12:35:47.205Z,54.32
2023-03-02T12:38:32.472Z,53.99
2023-03-02T12:41:17.517Z,54.12
2023-03-02T12:43:56.435Z,54.81
2023-03-02T12:46:33.150Z,53.93
2023-03-02T12:49:03.510Z,53.38
2023-03-02T12:51:43.950Z,52.77
2023-03-02T12:54:17.280Z,52.57
2023-03-02T12:56:44.980Z,52.64
2023-03-02T12:59:22.254Z,52.78
2023-03-02T13:01:49.142Z,52.58
2023-03-02T13:04:26.241Z,53.62
2023-03-02T13:06:54.255Z,52.49
2023-03-02T13:09:22.540Z,51.99
2023-03-02T13:11:52.077Z,52.66
2023-03-02T13:14:28.242Z,51.86
2023-03-02T13:16:59.455Z,52.24
2023-03-02T13:19:27.515Z,51.89
2023-03-02T13:21:54.356Z,52.43
2023-03-02T13:24:51.558Z,52.52
2023-03-02T13:27:21.310Z,53.24
2023-03-02T13:29:49.025Z,53.17
2023-03-02T13:32:27.100Z,53.55
2023-03-02T13:34:58.133Z,52.22
2023-03-02T13:37:43.915Z,52.45
2023-03-02T13:40:27.064Z,51.39
2023-03-02T13:42:54.645Z,52.52
2023-03-02T13:45:31.278Z,52.42
2023-03-02T13:48:00.555Z,52.52
2023-03-02T13:50:31.594Z,51.91
2023-03-02T13:53:02.498Z,51.69
2023-03-02T13:55:29.539Z,50.68
2023-03-02T13:57:56.458Z,51.33
2023-03-02T14:00:31.217Z,51.57
2023-03-02T14:02:57.811Z,51.05
2023-03-02T14:05:33.019Z,50.82
2023-03-02T14:08:00.493Z,51.21
2023-03-02T14:10:27.368Z,51.44
2023-03-02T14:13:03.516Z,50.49
2023-03-02T14:15:30.266Z,50.72
2023-03-02T14:17:57.085Z,50.73
2023-03-02T14:20:23.905Z,50.84
2023-03-02T14:22:50.808Z,49.57
2023-03-02T14:25:17.831Z,50.24
2023-03-02T14:27:47.193Z,49.37
2023-03-02T14:30:15.339Z,49.90
2023-03-02T14:32:41.965Z,49.80
2023-03-02T14:35:11.743Z,49.88
2023-03-02T14:37:43.051Z,49.35
2023-03-02T14:40:21.833Z,49.52
2023-03-02T14:42:48.691Z,49.22
2023-03-02T14:45:16.493Z,49.50
2023-03-02T14:47:43.073Z,49.89
2023-03-02T14:50:11.697Z,49.01
2023-03-02T14:52:45.709Z,48.43
2023-03-02T14:55:26.682Z,48.14
2023-03-02T14:57:57.604Z,47.85
2023-03-02T15:00:24.955Z,47.55
2023-03-02T15:02:51.914Z,48.25
2023-03-02T15:05:19.064Z,48.17
2023-03-02T15:07:46.704Z,47.49
2023-03-02T15:10:16.770Z,48.29
2023-03-02T15:12:43.497Z,47.83
2023-03-02T15:15:10.561Z,47.32
2023-03-02T15:17:37.195Z,47.98
2023-03-02T15:20:04.623Z,47.54
2023-03-02T15:22:31.233Z,47.75
2023-03-02T15:24:57.869Z,46.63
2023-03-02T15:27:24.841Z,46.74
2023-03-02T15:29:51.453Z,47.14
2023-03-02T15:32:18.156Z,47.13
2023-03-02T15:34:44.876Z,47.33
2023-03-02T15:37:11.928Z,47.56
2023-03-02T15:39:38.991Z,48.01
2023-03-02T15:42:06.111Z,47.85
2023-03-02T15:44:33.518Z,47.88
2023-03-02T15:47:01.519Z,47.76
2023-03-02T15:49:29.433Z,48.35
2023-03-02T15:51:57.699Z,48.63
2023-03-02T15:54:25.680Z,49.03
2023-03-02T15:56:53.365Z,48.83
2023-03-02T15:59:28.271Z,50.47
2023-03-02T16:01:59.610Z,49.46
2023-03-02T16:04:27.633Z,49.63
2023-03-02T16:06:54.995Z,48.57
2023-03-02T16:09:22.226Z,48.65
2023-03-02T16:11:49.937Z,50.84
2023-03-02T16:14:16.940Z,50.25
2023-03-02T16:16:45.374Z,50.46
2023-03-02T16:19:14.541Z,50.00
2023-03-02T16:21:41.819Z,51.09
2023-03-02T16:24:09.378Z,51.71
2023-03-02T16:26:38.108Z,51.08
2023-03-02T16:29:07.984Z,51.82
2023-03-02T16:31:37.761Z,51.56
2023-03-02T16:34:08.828Z,52.42
2023-03-02T16:36:37.879Z,51.77
2023-03-02T16:39:05.601Z,51.71
2023-03-02T16:41:32.426Z,51.60
2023-03-02T16:44:00.453Z,50.80
2023-03-02T16:46:31.198Z,51.77
2023-03-02T16:48:58.894Z,51.83
2023-03-02T16:51:26.076Z,52.34
2023-03-02T16:53:53.124Z,52.75
2023-03-02T16:56:20.022Z,52.97
2023-03-02T16:58:46.803Z,53.49
2023-03-02T17:01:20.341Z,54.03
2023-03-02T17:03:49.478Z,54.79
2023-03-02T17:06:18.529Z,53.97
2023-03-02T17:08:45.256Z,55.16
2023-03-02T17:11:12.020Z,55.48
2023-03-02T17:13:38.926Z,55.44
2023-03-02T17:16:06.130Z,56.38
2023-03-02T17:18:33.498Z,56.71
2023-03-02T17:21:00.525Z,56.99
2023-03-02T17:23:27.472Z,56.39
2023-03-02T17:25:54.786Z,55.58
2023-03-02T17:28:21.598Z,56.16
2023-03-02T17:30:48.271Z,55.82
2023-03-02T17:33:15.033Z,56.69
2023-03-02T17:35:42.591Z,56.95
2023-03-02T17:38:09.247Z,56.80
2023-03-02T17:40:35.878Z,56.38
2023-03-02T17:43:02.534Z,56.74
2023-03-02T17:45:29.468Z,56.42
2023-03-02T17:47:59.222Z,56.96
2023-03-02T17:50:26.179Z,57.10
2023-03-02T17:52:54.175Z,57.37
2023-03-02T17:55:21.060Z,56.97
2023-03-02T17:57:47.740Z,57.24
2023-03-02T18:00:18.724Z,56.84
2023-03-02T18:02:45.417Z,57.03
2023-03-02T18:05:12.844Z,58.36
2023-03-02T18:07:39.943Z,58.68
2023-03-02T18:10:07.249Z,59.16
2023-03-02T18:12:34.990Z,59.11
2023-03-02T18:15:02.138Z,59.80
2023-03-02T18:17:29.009Z,60.21
2023-03-02T18:19:55.625Z,59.98
2023-03-02T18:22:22.377Z,60.09
2023-03-02T18:24:50.545Z,61.15
2023-03-02T18:27:17.723Z,61.51
2023-03-02T18:29:44.421Z,61.87
2023-03-02T18:32:11.645Z,61.93
2023-03-02T18:34:38.479Z,62.18
2023-03-02T18:37:05.155Z,61.52
2023-03-02T18:39:31.981Z,61.02
2023-03-02T18:41:58.731Z,61.53
2023-03-02T18:44:28.060Z,61.82
2023-03-02T18:46:58.957Z,61.24
2023-03-02T18:49:25.898Z,61.72
2023-03-02T18:51:53.051Z,62.06
2023-03-02T18:54:19.747Z,62.15
2023-03-02T18:56:46.468Z,61.25
2023-03-02T18:59:13.990Z,62.07
2023-03-02T19:01:40.721Z,61.18
2023-03-02T19:04:07.491Z,61.02
2023-03-02T19:06:34.308Z,60.44
2023-03-02T19:09:01.225Z,61.68
2023-03-02T19:11:27.930Z,62.08
2023-03-02T19:13:54.609Z,62.90
2023-03-02T19:16:21.258Z,63.11
2023-03-02T19:18:48.709Z,63.42
2023-03-02T19:21:16.728Z,64.52
2023-03-02T19:23:45.558Z,65.12
2023-03-02T19:26:13.136Z,65.51
2023-03-02T19:28:39.976Z,65.46
2023-03-02T19:31:09.385Z,65.78
2023-03-02T19:33:37.379Z,65.34
2023-03-02T19:36:05.027Z,65.68
2023-03-02T19:38:31.664Z,65.17
2023-03-02T19:41:00.398Z,64.68
2023-03-02T19:43:27.740Z,62.82
2023-03-02T19:45:54.548Z,63.17
2023-03-02T19:48:21.387Z,63.14
2023-03-02T19:50:48.324Z,64.27
2023-03-02T19:53:17.038Z,64.08
2023-03-02T19:55:44.491Z,65.00
2023-03-02T19:58:16.988Z,64.49
2023-03-02T20:00:47.347Z,63.90
2023-03-02T20:03:14.056Z,64.32
2023-03-02T20:05:40.810Z,64.27
2023-03-02T20:08:08.308Z,63.99
2023-03-02T20:10:40.196Z,64.02
2023-03-02T20:13:08.333Z,63.96
2023-03-02T20:15:38.693Z,65.07
2023-03-02T20:18:07.976Z,63.41
2023-03-02T20:20:34.975Z,63.70
2023-03-02T20:23:16.839Z,63.69
2023-03-02T20:25:44.519Z,64.89
2023-03-02T20:28:14.382Z,63.48
2023-03-02T20:30:51.482Z,65.96
2023-03-02T20:33:19.389Z,66.41
2023-03-02T20:35:47.320Z,67.06
2023-03-02T20:38:19.706Z,65.86
2023-03-02T20:40:46.494Z,66.38
2023-03-02T20:43:13.295Z,67.03
2023-03-02T20:45:40.893Z,67.57
2023-03-02T20:48:08.147Z,67.65
2023-03-02T20:50:37.353Z,67.84
2023-03-02T20:53:05.829Z,68.04
2023-03-02T20:55:33.099Z,68.33
2023-03-02T20:58:01.212Z,68.39
2023-03-02T21:00:29.670Z,68.13
2023-03-02T21:02:57.804Z,67.64
2023-03-02T21:05:25.228Z,67.41
2023-03-02T21:07:52.314Z,67.08
2023-03-02T21:10:24.763Z,67.07
2023-03-02T21:12:51.442Z,67.88
2023-03-02T21:15:20.286Z,68.78
2023-03-02T21:17:47.573Z,68.62
2023-03-02T21:20:16.545Z,68.97
2023-03-02T21:22:46.428Z,68.33
2023-03-02T21:25:13.183Z,68.42
2023-03-02T21:27:41.175Z,68.29
2023-03-02T21:30:14.689Z,68.81
2023-03-02T21:32:45.642Z,68.39
2023-03-02T21:35:14.915Z,70.08
2023-03-02T21:37:42.215Z,70.01
2023-03-02T21:40:14.588Z,70.49
2023-03-02T21:42:42.445Z,70.73
2023-03-02T21:45:09.722Z,70.46
2023-03-02T21:47:36.806Z,70.11
2023-03-02T21:50:05.518Z,70.24
2023-03-02T21:52:32.173Z,71.51
2023-03-02T21:54:58.788Z,71.49
2023-03-02T21:57:25.408Z,72.05
2023-03-02T21:59:54.724Z,71.91
2023-03-02T22:02:21.296Z,72.04
2023-03-02T22:04:47.898Z,73.35
2023-03-02T22:07:14.513Z,72.98
2023-03-02T22:09:41.202Z,73.49
2023-03-02T22:12:13.697Z,74.26
2023-03-02T22:14:40.340Z,74.01
2023-03-02T22:17:19.576Z,73.99
2023-03-02T22:19:47.216Z,73.43
2023-03-02T22:22:27.628Z,74.00
2023-03-02T22:24:54.655Z,74.07
2023-03-02T22:27:30.474Z,73.88
2023-03-02T22:29:59.365Z,74.81
2023-03-02T22:32:30.185Z,74.96
2023-03-02T22:34:59.221Z,75.26
2023-03-02T22:37:28.674Z,76.19
2023-03-02T22:39:58.037Z,75.90
2023-03-02T22:42:29.345Z,76.07
2023-03-02T22:45:02.428Z,75.72
2023-03-02T22:47:32.271Z,75.81
2023-03-02T22:50:12.194Z,76.58
2023-03-02T22:52:41.757Z,77.79
2023-03-02T22:55:39.009Z,77.20
2023-03-02T22:58:36.213Z,77.60
2023-03-02T23:01:03.014Z,77.90
2023-03-02T23:03:39.829Z,78.21
2023-03-02T23:06:37.037Z,78.15
2023-03-02T23:09:06.426Z,78.13
2023-03-02T23:11:38.206Z,78.20
2023-03-02T23:14:28.188Z,77.64
2023-03-02T23:17:00.340Z,77.06
2023-03-02T23:19:28.934Z,77.96
2023-03-02T23:21:56.252Z,78.98
2023-03-02T23:24:22.946Z,78.77
2023-03-02T23:26:51.089Z,78.49
2023-03-02T23:29:18.712Z,79.02
2023-03-02T23:31:47.018Z,78.59
2023-03-02T23:34:14.049Z,78.39
2023-03-02T23:36:41.877Z,79.65
2023-03-02T23:39:09.517Z,79.69
2023-03-02T23:41:37.250Z,79.49
2023-03-02T23:44:04.900Z,79.05
2023-03-02T23:46:32.360Z,80.12
2023-03-02T23:48:58.990Z,79.80
2023-03-02T23:51:26.272Z,80.11
2023-03-02T23:53:54.072Z,81.36
2023-03-02T23:56:21.231Z,81.34
2023-03-02T23:58:48.151Z,82.53
